sensor_id;sensor_type;location;lat;lon;timestamp;temperature;humidity
7738;DHT22;29398;45.328;5.558;2023-06-14T00:00:52;20.40;99.90
7738;DHT22;29398;45.328;5.558;2023-06-14T00:01:58;20.40;99.90
7738;DHT22;29398;45.328;5.558;2023-06-14T00:03:01;20.40;99.90
7738;DHT22;29398;45.328;5.558;2023-06-14T00:04:02;20.40;99.90
7738;DHT22;29398;45.328;5.558;2023-06-14T00:05:06;20.40;99.90
7738;DHT22;29398;45.328;5.558;2023-06-14T00:06:07;20.40;99.90
7738;DHT22;29398;45.328;5.558;2023-06-14T00:07:09;20.40;99.90
7738;DHT22;29398;45.328;5.558;2023-06-14T00:08:10;20.40;99.90
7738;DHT22;29398;45.328;5.558;2023-06-14T00:09:12;20.40;99.90
7738;DHT22;29398;45.328;5.558;2023-06-14T00:10:14;20.40;99.90
7738;DHT22;29398;45.328;5.558;2023-06-14T00:11:17;20.30;99.90
7738;DHT22;29398;45.328;5.558;2023-06-14T00:12:18;20.40;99.90
7738;DHT22;29398;45.328;5.558;2023-06-14T00:13:20;20.40;99.90
7738;DHT22;29398;45.328;5.558;2023-06-14T00:14:21;20.30;99.90
7738;DHT22;29398;45.328;5.558;2023-06-14T00:15:24;20.30;99.90
7738;DHT22;29398;45.328;5.558;2023-06-14T00:16:25;20.30;99.90
7738;DHT22;29398;45.328;5.558;2023-06-14T00:17:28;20.30;99.90
7738;DHT22;29398;45.328;5.558;2023-06-14T00:18:30;20.30;99.90
7738;DHT22;29398;45.328;5.558;2023-06-14T00:19:33;20.20;99.90
7738;DHT22;29398;45.328;5.558;2023-06-14T00:20:36;20.20;99.90
7738;DHT22;29398;45.328;5.558;2023-06-14T00:21:38;20.20;99.90
7738;DHT22;29398;45.328;5.558;2023-06-14T00:22:39;20.10;99.90
7738;DHT22;29398;45.328;5.558;2023-06-14T00:23:41;20.10;99.90
7738;DHT22;29398;45.328;5.558;2023-06-14T00:24:43;20.10;99.90
7738;DHT22;29398;45.328;5.558;2023-06-14T00:25:45;20.10;99.90
7738;DHT22;29398;45.328;5.558;2023-06-14T00:26:47;20.10;99.90
7738;DHT22;29398;45.328;5.558;2023-06-14T00:27:49;20.10;99.90
7738;DHT22;29398;45.328;5.558;2023-06-14T00:28:50;20.10;99.90
7738;DHT22;29398;45.328;5.558;2023-06-14T00:29:52;20.00;99.90
7738;DHT22;29398;45.328;5.558;2023-06-14T00:30:53;20.00;99.90
7738;DHT22;29398;45.328;5.558;2023-06-14T00:31:55;20.10;99.90
7738;DHT22;29398;45.328;5.558;2023-06-14T00:32:58;20.00;99.90
7738;DHT22;29398;45.328;5.558;2023-06-14T00:34:00;20.00;99.90
7738;DHT22;29398;45.328;5.558;2023-06-14T00:35:01;20.00;99.90
7738;DHT22;29398;45.328;5.558;2023-06-14T00:36:04;20.00;99.90
7738;DHT22;29398;45.328;5.558;2023-06-14T00:37:05;20.00;99.90
7738;DHT22;29398;45.328;5.558;2023-06-14T00:38:07;20.00;99.90
7738;DHT22;29398;45.328;5.558;2023-06-14T00:39:08;20.00;99.90
7738;DHT22;29398;45.328;5.558;2023-06-14T00:40:11;19.90;99.90
7738;DHT22;29398;45.328;5.558;2023-06-14T00:41:12;19.90;99.90
7738;DHT22;29398;45.328;5.558;2023-06-14T00:42:23;19.90;99.90
7738;DHT22;29398;45.328;5.558;2023-06-14T00:43:25;19.90;99.90
7738;DHT22;29398;45.328;5.558;2023-06-14T00:44:28;19.90;99.90
7738;DHT22;29398;45.328;5.558;2023-06-14T00:45:30;19.90;99.90
7738;DHT22;29398;45.328;5.558;2023-06-14T00:46:36;19.80;99.90
7738;DHT22;29398;45.328;5.558;2023-06-14T00:47:38;19.80;99.90
7738;DHT22;29398;45.328;5.558;2023-06-14T00:48:43;19.80;99.90
7738;DHT22;29398;45.328;5.558;2023-06-14T00:49:46;19.80;99.90
7738;DHT22;29398;45.328;5.558;2023-06-14T00:50:49;19.70;99.90
7738;DHT22;29398;45.328;5.558;2023-06-14T00:51:51;19.70;99.90
7738;DHT22;29398;45.328;5.558;2023-06-14T00:52:53;19.70;99.90
7738;DHT22;29398;45.328;5.558;2023-06-14T00:53:54;19.70;99.90
7738;DHT22;29398;45.328;5.558;2023-06-14T00:54:57;19.60;99.90
7738;DHT22;29398;45.328;5.558;2023-06-14T00:55:58;19.70;99.90
7738;DHT22;29398;45.328;5.558;2023-06-14T00:57:00;19.60;99.90
7738;DHT22;29398;45.328;5.558;2023-06-14T00:58:01;19.60;99.90
7738;DHT22;29398;45.328;5.558;2023-06-14T00:59:03;19.60;99.90
7738;DHT22;29398;45.328;5.558;2023-06-14T01:00:05;19.60;99.90
7738;DHT22;29398;45.328;5.558;2023-06-14T01:01:10;19.60;99.90
7738;DHT22;29398;45.328;5.558;2023-06-14T01:02:11;19.60;99.90
7738;DHT22;29398;45.328;5.558;2023-06-14T01:03:15;19.50;99.90
7738;DHT22;29398;45.328;5.558;2023-06-14T01:04:24;19.60;99.90
7738;DHT22;29398;45.328;5.558;2023-06-14T01:05:26;19.50;99.90
7738;DHT22;29398;45.328;5.558;2023-06-14T01:06:35;19.50;99.90
7738;DHT22;29398;45.328;5.558;2023-06-14T01:07:51;19.50;99.90
7738;DHT22;29398;45.328;5.558;2023-06-14T01:09:03;19.50;99.90
7738;DHT22;29398;45.328;5.558;2023-06-14T01:10:23;19.50;99.90
7738;DHT22;29398;45.328;5.558;2023-06-14T01:11:32;19.60;99.90
7738;DHT22;29398;45.328;5.558;2023-06-14T01:12:41;19.50;99.90
7738;DHT22;29398;45.328;5.558;2023-06-14T01:13:47;19.50;99.90
7738;DHT22;29398;45.328;5.558;2023-06-14T01:14:50;19.50;99.90
7738;DHT22;29398;45.328;5.558;2023-06-14T01:15:54;19.50;99.90
7738;DHT22;29398;45.328;5.558;2023-06-14T01:16:58;19.50;99.90
7738;DHT22;29398;45.328;5.558;2023-06-14T01:18:01;19.50;99.90
7738;DHT22;29398;45.328;5.558;2023-06-14T01:19:04;19.50;99.90
7738;DHT22;29398;45.328;5.558;2023-06-14T01:20:10;19.50;99.90
7738;DHT22;29398;45.328;5.558;2023-06-14T01:21:21;19.50;99.90
7738;DHT22;29398;45.328;5.558;2023-06-14T01:22:25;19.50;99.90
7738;DHT22;29398;45.328;5.558;2023-06-14T01:23:31;19.50;99.90
7738;DHT22;29398;45.328;5.558;2023-06-14T01:24:34;19.50;99.90
7738;DHT22;29398;45.328;5.558;2023-06-14T01:25:36;19.50;99.90
7738;DHT22;29398;45.328;5.558;2023-06-14T01:26:40;19.40;99.90
7738;DHT22;29398;45.328;5.558;2023-06-14T01:27:47;19.40;99.90
7738;DHT22;29398;45.328;5.558;2023-06-14T01:28:50;19.40;99.90
7738;DHT22;29398;45.328;5.558;2023-06-14T01:29:53;19.40;99.90
7738;DHT22;29398;45.328;5.558;2023-06-14T01:30:58;19.40;99.90
7738;DHT22;29398;45.328;5.558;2023-06-14T01:32:01;19.40;99.90
7738;DHT22;29398;45.328;5.558;2023-06-14T01:33:05;19.50;99.90
7738;DHT22;29398;45.328;5.558;2023-06-14T01:34:07;19.40;99.90
7738;DHT22;29398;45.328;5.558;2023-06-14T01:35:09;19.40;99.90
7738;DHT22;29398;45.328;5.558;2023-06-14T01:36:10;19.40;99.90
7738;DHT22;29398;45.328;5.558;2023-06-14T01:37:14;19.40;99.90
7738;DHT22;29398;45.328;5.558;2023-06-14T01:38:15;19.40;99.90
7738;DHT22;29398;45.328;5.558;2023-06-14T01:39:21;19.40;99.90
7738;DHT22;29398;45.328;5.558;2023-06-14T01:40:24;19.40;99.90
7738;DHT22;29398;45.328;5.558;2023-06-14T01:41:27;19.40;99.90
7738;DHT22;29398;45.328;5.558;2023-06-14T01:42:29;19.40;99.90
7738;DHT22;29398;45.328;5.558;2023-06-14T01:43:33;19.40;99.90
7738;DHT22;29398;45.328;5.558;2023-06-14T01:44:35;19.40;99.90
7738;DHT22;29398;45.328;5.558;2023-06-14T01:45:38;19.40;99.90
7738;DHT22;29398;45.328;5.558;2023-06-14T01:46:41;19.40;99.90
7738;DHT22;29398;45.328;5.558;2023-06-14T01:47:44;19.40;99.90
7738;DHT22;29398;45.328;5.558;2023-06-14T01:48:46;19.40;99.90
7738;DHT22;29398;45.328;5.558;2023-06-14T01:49:48;19.40;99.90
7738;DHT22;29398;45.328;5.558;2023-06-14T01:50:49;19.40;99.90
7738;DHT22;29398;45.328;5.558;2023-06-14T01:51:51;19.40;99.90
7738;DHT22;29398;45.328;5.558;2023-06-14T01:52:52;19.40;99.90
7738;DHT22;29398;45.328;5.558;2023-06-14T01:53:54;19.40;99.90
7738;DHT22;29398;45.328;5.558;2023-06-14T01:54:57;19.40;99.90
7738;DHT22;29398;45.328;5.558;2023-06-14T01:56:03;19.40;99.90
7738;DHT22;29398;45.328;5.558;2023-06-14T01:57:06;19.40;99.90
7738;DHT22;29398;45.328;5.558;2023-06-14T01:58:08;19.40;99.90
7738;DHT22;29398;45.328;5.558;2023-06-14T01:59:09;19.40;99.90
7738;DHT22;29398;45.328;5.558;2023-06-14T02:00:12;19.40;99.90
7738;DHT22;29398;45.328;5.558;2023-06-14T02:01:13;19.40;99.90
7738;DHT22;29398;45.328;5.558;2023-06-14T02:02:19;19.40;99.90
7738;DHT22;29398;45.328;5.558;2023-06-14T02:03:20;19.40;99.90
7738;DHT22;29398;45.328;5.558;2023-06-14T02:04:24;19.40;99.90
7738;DHT22;29398;45.328;5.558;2023-06-14T02:05:25;19.40;99.90
7738;DHT22;29398;45.328;5.558;2023-06-14T02:06:27;19.40;99.90
7738;DHT22;29398;45.328;5.558;2023-06-14T02:07:28;19.40;99.90
7738;DHT22;29398;45.328;5.558;2023-06-14T02:08:30;19.40;99.90
7738;DHT22;29398;45.328;5.558;2023-06-14T02:09:31;19.40;99.90
7738;DHT22;29398;45.328;5.558;2023-06-14T02:10:34;19.40;99.90
7738;DHT22;29398;45.328;5.558;2023-06-14T02:11:35;19.40;99.90
7738;DHT22;29398;45.328;5.558;2023-06-14T02:12:37;19.40;99.90
7738;DHT22;29398;45.328;5.558;2023-06-14T02:13:39;19.40;99.90
7738;DHT22;29398;45.328;5.558;2023-06-14T02:14:41;19.40;99.90
7738;DHT22;29398;45.328;5.558;2023-06-14T02:15:42;19.40;99.90
7738;DHT22;29398;45.328;5.558;2023-06-14T02:16:44;19.40;99.90
7738;DHT22;29398;45.328;5.558;2023-06-14T02:17:49;19.40;99.90
7738;DHT22;29398;45.328;5.558;2023-06-14T02:18:51;19.40;99.90
7738;DHT22;29398;45.328;5.558;2023-06-14T02:19:53;19.40;99.90
7738;DHT22;29398;45.328;5.558;2023-06-14T02:20:56;19.40;99.90
7738;DHT22;29398;45.328;5.558;2023-06-14T02:21:57;19.30;99.90
7738;DHT22;29398;45.328;5.558;2023-06-14T02:22:59;19.40;99.90
7738;DHT22;29398;45.328;5.558;2023-06-14T02:24:00;19.30;99.90
7738;DHT22;29398;45.328;5.558;2023-06-14T02:25:03;19.30;99.90
7738;DHT22;29398;45.328;5.558;2023-06-14T02:26:05;19.30;99.90
7738;DHT22;29398;45.328;5.558;2023-06-14T02:28:11;19.30;99.90
7738;DHT22;29398;45.328;5.558;2023-06-14T02:29:14;19.30;99.90
7738;DHT22;29398;45.328;5.558;2023-06-14T02:30:15;19.30;99.90
7738;DHT22;29398;45.328;5.558;2023-06-14T02:31:17;19.30;99.90
7738;DHT22;29398;45.328;5.558;2023-06-14T02:32:18;19.30;99.90
7738;DHT22;29398;45.328;5.558;2023-06-14T02:33:20;19.20;99.90
7738;DHT22;29398;45.328;5.558;2023-06-14T02:34:22;19.20;99.90
7738;DHT22;29398;45.328;5.558;2023-06-14T02:35:24;19.20;99.90
7738;DHT22;29398;45.328;5.558;2023-06-14T02:36:27;19.20;99.90
7738;DHT22;29398;45.328;5.558;2023-06-14T02:37:30;19.20;99.90
7738;DHT22;29398;45.328;5.558;2023-06-14T02:38:31;19.20;99.90
7738;DHT22;29398;45.328;5.558;2023-06-14T02:39:33;19.20;99.90
7738;DHT22;29398;45.328;5.558;2023-06-14T02:40:35;19.20;99.90
7738;DHT22;29398;45.328;5.558;2023-06-14T02:41:38;19.20;99.90
7738;DHT22;29398;45.328;5.558;2023-06-14T02:42:39;19.20;99.90
7738;DHT22;29398;45.328;5.558;2023-06-14T02:43:41;19.30;99.90
7738;DHT22;29398;45.328;5.558;2023-06-14T02:44:42;19.30;99.90
7738;DHT22;29398;45.328;5.558;2023-06-14T02:45:45;19.30;99.90
7738;DHT22;29398;45.328;5.558;2023-06-14T02:46:48;19.30;99.90
7738;DHT22;29398;45.328;5.558;2023-06-14T02:47:51;19.30;99.90
7738;DHT22;29398;45.328;5.558;2023-06-14T02:48:52;19.20;99.90
7738;DHT22;29398;45.328;5.558;2023-06-14T02:49:54;19.20;99.90
7738;DHT22;29398;45.328;5.558;2023-06-14T02:50:55;19.20;99.90
7738;DHT22;29398;45.328;5.558;2023-06-14T02:51:58;19.20;99.90
7738;DHT22;29398;45.328;5.558;2023-06-14T02:52:59;19.20;99.90
7738;DHT22;29398;45.328;5.558;2023-06-14T02:54:01;19.20;99.90
7738;DHT22;29398;45.328;5.558;2023-06-14T02:55:03;19.20;99.90
7738;DHT22;29398;45.328;5.558;2023-06-14T02:56:06;19.20;99.90
7738;DHT22;29398;45.328;5.558;2023-06-14T02:57:09;19.20;99.90
7738;DHT22;29398;45.328;5.558;2023-06-14T02:58:12;19.20;99.90
7738;DHT22;29398;45.328;5.558;2023-06-14T02:59:13;19.20;99.90
7738;DHT22;29398;45.328;5.558;2023-06-14T03:00:17;19.30;99.90
7738;DHT22;29398;45.328;5.558;2023-06-14T03:01:21;19.30;99.90
7738;DHT22;29398;45.328;5.558;2023-06-14T03:02:24;19.20;99.90
7738;DHT22;29398;45.328;5.558;2023-06-14T03:03:25;19.30;99.90
7738;DHT22;29398;45.328;5.558;2023-06-14T03:04:30;19.30;99.90
7738;DHT22;29398;45.328;5.558;2023-06-14T03:05:36;19.30;99.90
7738;DHT22;29398;45.328;5.558;2023-06-14T03:06:42;19.30;99.90
7738;DHT22;29398;45.328;5.558;2023-06-14T03:07:45;19.30;99.90
7738;DHT22;29398;45.328;5.558;2023-06-14T03:08:48;19.30;99.90
7738;DHT22;29398;45.328;5.558;2023-06-14T03:09:50;19.20;99.90
7738;DHT22;29398;45.328;5.558;2023-06-14T03:10:53;19.30;99.90
7738;DHT22;29398;45.328;5.558;2023-06-14T03:11:54;19.30;99.90
7738;DHT22;29398;45.328;5.558;2023-06-14T03:12:58;19.30;99.90
7738;DHT22;29398;45.328;5.558;2023-06-14T03:13:59;19.30;99.90
7738;DHT22;29398;45.328;5.558;2023-06-14T03:15:04;19.30;99.90
7738;DHT22;29398;45.328;5.558;2023-06-14T03:16:09;19.30;99.90
7738;DHT22;29398;45.328;5.558;2023-06-14T03:17:14;19.30;99.90
7738;DHT22;29398;45.328;5.558;2023-06-14T03:18:17;19.30;99.90
7738;DHT22;29398;45.328;5.558;2023-06-14T03:19:20;19.30;99.90
7738;DHT22;29398;45.328;5.558;2023-06-14T03:20:22;19.30;99.90
7738;DHT22;29398;45.328;5.558;2023-06-14T03:21:25;19.30;99.90
7738;DHT22;29398;45.328;5.558;2023-06-14T03:22:31;19.40;99.90
7738;DHT22;29398;45.328;5.558;2023-06-14T03:23:35;19.30;99.90
7738;DHT22;29398;45.328;5.558;2023-06-14T03:24:38;19.30;99.90
7738;DHT22;29398;45.328;5.558;2023-06-14T03:25:44;19.30;99.90
7738;DHT22;29398;45.328;5.558;2023-06-14T03:26:48;19.30;99.90
7738;DHT22;29398;45.328;5.558;2023-06-14T03:27:49;19.30;99.90
7738;DHT22;29398;45.328;5.558;2023-06-14T03:28:53;19.30;99.90
7738;DHT22;29398;45.328;5.558;2023-06-14T03:29:55;19.30;99.90
7738;DHT22;29398;45.328;5.558;2023-06-14T03:30:58;19.40;99.90
7738;DHT22;29398;45.328;5.558;2023-06-14T03:32:01;19.40;99.90
7738;DHT22;29398;45.328;5.558;2023-06-14T03:33:10;19.30;99.90
7738;DHT22;29398;45.328;5.558;2023-06-14T03:34:14;19.40;99.90
7738;DHT22;29398;45.328;5.558;2023-06-14T03:35:16;19.40;99.90
7738;DHT22;29398;45.328;5.558;2023-06-14T03:36:18;19.40;99.90
7738;DHT22;29398;45.328;5.558;2023-06-14T03:37:20;19.40;99.90
7738;DHT22;29398;45.328;5.558;2023-06-14T03:38:22;19.40;99.90
7738;DHT22;29398;45.328;5.558;2023-06-14T03:39:25;19.40;99.90
7738;DHT22;29398;45.328;5.558;2023-06-14T03:40:26;19.30;99.90
7738;DHT22;29398;45.328;5.558;2023-06-14T03:41:34;19.40;99.90
7738;DHT22;29398;45.328;5.558;2023-06-14T03:42:36;19.40;99.90
7738;DHT22;29398;45.328;5.558;2023-06-14T03:43:37;19.40;99.90
7738;DHT22;29398;45.328;5.558;2023-06-14T03:44:40;19.40;99.90
7738;DHT22;29398;45.328;5.558;2023-06-14T03:45:43;19.40;99.90
7738;DHT22;29398;45.328;5.558;2023-06-14T03:46:44;19.40;99.90
7738;DHT22;29398;45.328;5.558;2023-06-14T03:47:47;19.40;99.90
7738;DHT22;29398;45.328;5.558;2023-06-14T03:48:48;19.40;99.90
7738;DHT22;29398;45.328;5.558;2023-06-14T03:49:51;19.40;99.90
7738;DHT22;29398;45.328;5.558;2023-06-14T03:50:52;19.40;99.90
7738;DHT22;29398;45.328;5.558;2023-06-14T03:51:56;19.30;99.90
7738;DHT22;29398;45.328;5.558;2023-06-14T03:52:58;19.30;99.90
7738;DHT22;29398;45.328;5.558;2023-06-14T03:54:02;19.30;99.90
7738;DHT22;29398;45.328;5.558;2023-06-14T03:55:04;19.30;99.90
7738;DHT22;29398;45.328;5.558;2023-06-14T03:56:07;19.30;99.90
7738;DHT22;29398;45.328;5.558;2023-06-14T03:57:15;19.30;99.90
7738;DHT22;29398;45.328;5.558;2023-06-14T03:58:18;19.30;99.90
7738;DHT22;29398;45.328;5.558;2023-06-14T03:59:20;19.30;99.90
7738;DHT22;29398;45.328;5.558;2023-06-14T04:00:24;19.30;99.90
7738;DHT22;29398;45.328;5.558;2023-06-14T04:01:25;19.30;99.90
7738;DHT22;29398;45.328;5.558;2023-06-14T04:02:30;19.30;99.90
7738;DHT22;29398;45.328;5.558;2023-06-14T04:03:31;19.20;99.90
7738;DHT22;29398;45.328;5.558;2023-06-14T04:04:35;19.20;99.90
7738;DHT22;29398;45.328;5.558;2023-06-14T04:05:39;19.30;99.90
7738;DHT22;29398;45.328;5.558;2023-06-14T04:06:42;19.20;99.90
7738;DHT22;29398;45.328;5.558;2023-06-14T04:07:45;19.30;99.90
7738;DHT22;29398;45.328;5.558;2023-06-14T04:08:49;19.20;99.90
7738;DHT22;29398;45.328;5.558;2023-06-14T04:09:50;19.20;99.90
7738;DHT22;29398;45.328;5.558;2023-06-14T04:10:52;19.20;99.90
7738;DHT22;29398;45.328;5.558;2023-06-14T04:11:53;19.20;99.90
7738;DHT22;29398;45.328;5.558;2023-06-14T04:12:56;19.20;99.90
7738;DHT22;29398;45.328;5.558;2023-06-14T04:13:57;19.20;99.90
7738;DHT22;29398;45.328;5.558;2023-06-14T04:15:00;19.20;99.90
7738;DHT22;29398;45.328;5.558;2023-06-14T04:16:05;19.20;99.90
7738;DHT22;29398;45.328;5.558;2023-06-14T04:17:09;19.20;99.90
7738;DHT22;29398;45.328;5.558;2023-06-14T04:18:13;19.20;99.90
7738;DHT22;29398;45.328;5.558;2023-06-14T04:19:15;19.20;99.90
7738;DHT22;29398;45.328;5.558;2023-06-14T04:20:17;19.20;99.90
7738;DHT22;29398;45.328;5.558;2023-06-14T04:21:19;19.20;99.90
7738;DHT22;29398;45.328;5.558;2023-06-14T04:22:21;19.20;99.90
7738;DHT22;29398;45.328;5.558;2023-06-14T04:23:23;19.20;99.90
7738;DHT22;29398;45.328;5.558;2023-06-14T04:24:24;19.20;99.90
7738;DHT22;29398;45.328;5.558;2023-06-14T04:25:29;19.20;99.90
7738;DHT22;29398;45.328;5.558;2023-06-14T04:26:33;19.30;99.90
7738;DHT22;29398;45.328;5.558;2023-06-14T04:27:35;19.20;99.90
7738;DHT22;29398;45.328;5.558;2023-06-14T04:28:38;19.20;99.90
7738;DHT22;29398;45.328;5.558;2023-06-14T04:29:41;19.30;99.90
7738;DHT22;29398;45.328;5.558;2023-06-14T04:30:47;19.20;99.90
7738;DHT22;29398;45.328;5.558;2023-06-14T04:31:53;19.30;99.90
7738;DHT22;29398;45.328;5.558;2023-06-14T04:32:55;19.30;99.90
7738;DHT22;29398;45.328;5.558;2023-06-14T04:33:57;19.20;99.90
7738;DHT22;29398;45.328;5.558;2023-06-14T04:35:00;19.30;99.90
7738;DHT22;29398;45.328;5.558;2023-06-14T04:36:05;19.30;99.90
7738;DHT22;29398;45.328;5.558;2023-06-14T04:37:08;19.30;99.90
7738;DHT22;29398;45.328;5.558;2023-06-14T04:38:13;19.30;99.90
7738;DHT22;29398;45.328;5.558;2023-06-14T04:39:14;19.30;99.90
7738;DHT22;29398;45.328;5.558;2023-06-14T04:40:17;19.40;99.90
7738;DHT22;29398;45.328;5.558;2023-06-14T04:41:19;19.30;99.90
7738;DHT22;29398;45.328;5.558;2023-06-14T04:42:21;19.30;99.90
7738;DHT22;29398;45.328;5.558;2023-06-14T04:43:26;19.30;99.90
7738;DHT22;29398;45.328;5.558;2023-06-14T04:44:30;19.40;99.90
7738;DHT22;29398;45.328;5.558;2023-06-14T04:45:34;19.40;99.90
7738;DHT22;29398;45.328;5.558;2023-06-14T04:46:37;19.40;99.90
7738;DHT22;29398;45.328;5.558;2023-06-14T04:47:49;19.40;99.90
7738;DHT22;29398;45.328;5.558;2023-06-14T04:48:58;19.40;99.90
7738;DHT22;29398;45.328;5.558;2023-06-14T04:50:03;19.40;99.90
7738;DHT22;29398;45.328;5.558;2023-06-14T04:51:06;19.40;99.90
7738;DHT22;29398;45.328;5.558;2023-06-14T04:52:08;19.40;99.90
7738;DHT22;29398;45.328;5.558;2023-06-14T04:53:14;19.40;99.90
7738;DHT22;29398;45.328;5.558;2023-06-14T04:54:16;19.40;99.90
7738;DHT22;29398;45.328;5.558;2023-06-14T04:55:21;19.40;99.90
7738;DHT22;29398;45.328;5.558;2023-06-14T04:56:23;19.40;99.90
7738;DHT22;29398;45.328;5.558;2023-06-14T04:57:25;19.50;99.90
7738;DHT22;29398;45.328;5.558;2023-06-14T04:58:31;19.50;99.90
7738;DHT22;29398;45.328;5.558;2023-06-14T04:59:32;19.50;99.90
7738;DHT22;29398;45.328;5.558;2023-06-14T05:00:36;19.50;99.90
7738;DHT22;29398;45.328;5.558;2023-06-14T05:01:38;19.50;99.90
7738;DHT22;29398;45.328;5.558;2023-06-14T05:02:40;19.50;99.90
7738;DHT22;29398;45.328;5.558;2023-06-14T05:03:43;19.50;99.90
7738;DHT22;29398;45.328;5.558;2023-06-14T05:04:45;19.50;99.90
7738;DHT22;29398;45.328;5.558;2023-06-14T05:05:48;19.50;99.90
7738;DHT22;29398;45.328;5.558;2023-06-14T05:06:51;19.50;99.90
7738;DHT22;29398;45.328;5.558;2023-06-14T05:07:55;19.50;99.90
7738;DHT22;29398;45.328;5.558;2023-06-14T05:08:58;19.50;99.90
7738;DHT22;29398;45.328;5.558;2023-06-14T05:09:59;19.50;99.90
7738;DHT22;29398;45.328;5.558;2023-06-14T05:11:01;19.50;99.90
7738;DHT22;29398;45.328;5.558;2023-06-14T05:12:03;19.50;99.90
7738;DHT22;29398;45.328;5.558;2023-06-14T05:13:08;19.60;99.90
7738;DHT22;29398;45.328;5.558;2023-06-14T05:14:11;19.60;99.90
7738;DHT22;29398;45.328;5.558;2023-06-14T05:15:13;19.60;99.90
7738;DHT22;29398;45.328;5.558;2023-06-14T05:16:15;19.60;99.90
7738;DHT22;29398;45.328;5.558;2023-06-14T05:17:20;19.60;99.90
7738;DHT22;29398;45.328;5.558;2023-06-14T05:18:21;19.60;99.90
7738;DHT22;29398;45.328;5.558;2023-06-14T05:19:24;19.60;99.90
7738;DHT22;29398;45.328;5.558;2023-06-14T05:20:25;19.60;99.90
7738;DHT22;29398;45.328;5.558;2023-06-14T05:21:27;19.60;99.90
7738;DHT22;29398;45.328;5.558;2023-06-14T05:22:28;19.60;99.90
7738;DHT22;29398;45.328;5.558;2023-06-14T05:23:30;19.60;99.90
7738;DHT22;29398;45.328;5.558;2023-06-14T05:24:32;19.60;99.90
7738;DHT22;29398;45.328;5.558;2023-06-14T05:25:34;19.60;99.90
7738;DHT22;29398;45.328;5.558;2023-06-14T05:26:35;19.60;99.90
7738;DHT22;29398;45.328;5.558;2023-06-14T05:27:37;19.60;99.90
7738;DHT22;29398;45.328;5.558;2023-06-14T05:28:41;19.60;99.90
7738;DHT22;29398;45.328;5.558;2023-06-14T05:29:42;19.70;99.90
7738;DHT22;29398;45.328;5.558;2023-06-14T05:30:44;19.70;99.90
7738;DHT22;29398;45.328;5.558;2023-06-14T05:31:45;19.60;99.90
7738;DHT22;29398;45.328;5.558;2023-06-14T05:32:47;19.70;99.90
7738;DHT22;29398;45.328;5.558;2023-06-14T05:33:48;19.70;99.90
7738;DHT22;29398;45.328;5.558;2023-06-14T05:34:52;19.70;99.90
7738;DHT22;29398;45.328;5.558;2023-06-14T05:35:53;19.70;99.90
7738;DHT22;29398;45.328;5.558;2023-06-14T05:36:55;19.80;99.90
7738;DHT22;29398;45.328;5.558;2023-06-14T05:37:56;19.80;99.90
7738;DHT22;29398;45.328;5.558;2023-06-14T05:38:59;19.80;99.90
7738;DHT22;29398;45.328;5.558;2023-06-14T05:40:00;19.80;99.90
7738;DHT22;29398;45.328;5.558;2023-06-14T05:41:04;19.80;99.90
7738;DHT22;29398;45.328;5.558;2023-06-14T05:42:06;19.90;99.90
7738;DHT22;29398;45.328;5.558;2023-06-14T05:43:08;19.90;99.90
7738;DHT22;29398;45.328;5.558;2023-06-14T05:44:09;19.90;99.90
7738;DHT22;29398;45.328;5.558;2023-06-14T05:45:11;19.90;99.90
7738;DHT22;29398;45.328;5.558;2023-06-14T05:46:12;20.00;99.90
7738;DHT22;29398;45.328;5.558;2023-06-14T05:47:16;20.00;99.90
7738;DHT22;29398;45.328;5.558;2023-06-14T05:48:17;20.00;99.90
7738;DHT22;29398;45.328;5.558;2023-06-14T05:49:19;20.00;99.90
7738;DHT22;29398;45.328;5.558;2023-06-14T05:50:21;20.00;99.90
7738;DHT22;29398;45.328;5.558;2023-06-14T05:51:23;20.00;99.90
7738;DHT22;29398;45.328;5.558;2023-06-14T05:52:25;20.00;99.90
7738;DHT22;29398;45.328;5.558;2023-06-14T05:53:27;20.00;99.90
7738;DHT22;29398;45.328;5.558;2023-06-14T05:54:28;20.00;99.90
7738;DHT22;29398;45.328;5.558;2023-06-14T05:55:30;20.10;99.90
7738;DHT22;29398;45.328;5.558;2023-06-14T05:56:31;20.10;99.90
7738;DHT22;29398;45.328;5.558;2023-06-14T05:57:33;20.10;99.90
7738;DHT22;29398;45.328;5.558;2023-06-14T05:58:34;20.20;99.90
7738;DHT22;29398;45.328;5.558;2023-06-14T05:59:36;20.20;99.90
7738;DHT22;29398;45.328;5.558;2023-06-14T06:00:37;20.20;99.90
7738;DHT22;29398;45.328;5.558;2023-06-14T06:01:40;20.30;99.90
7738;DHT22;29398;45.328;5.558;2023-06-14T06:02:41;20.30;99.90
7738;DHT22;29398;45.328;5.558;2023-06-14T06:03:44;20.30;99.90
7738;DHT22;29398;45.328;5.558;2023-06-14T06:04:46;20.40;99.90
7738;DHT22;29398;45.328;5.558;2023-06-14T06:05:50;20.40;99.90
7738;DHT22;29398;45.328;5.558;2023-06-14T06:06:51;20.50;99.90
7738;DHT22;29398;45.328;5.558;2023-06-14T06:07:53;20.50;99.90
7738;DHT22;29398;45.328;5.558;2023-06-14T06:08:54;20.50;99.90
7738;DHT22;29398;45.328;5.558;2023-06-14T06:09:56;20.50;99.90
7738;DHT22;29398;45.328;5.558;2023-06-14T06:10:57;20.50;99.90
7738;DHT22;29398;45.328;5.558;2023-06-14T06:12:00;20.60;99.90
7738;DHT22;29398;45.328;5.558;2023-06-14T06:13:01;20.60;99.90
7738;DHT22;29398;45.328;5.558;2023-06-14T06:14:03;20.60;99.90
7738;DHT22;29398;45.328;5.558;2023-06-14T06:15:05;20.60;99.90
7738;DHT22;29398;45.328;5.558;2023-06-14T06:16:08;20.70;99.90
7738;DHT22;29398;45.328;5.558;2023-06-14T06:17:09;20.70;99.90
7738;DHT22;29398;45.328;5.558;2023-06-14T06:18:11;20.70;99.90
7738;DHT22;29398;45.328;5.558;2023-06-14T06:19:12;20.70;99.90
7738;DHT22;29398;45.328;5.558;2023-06-14T06:20:14;20.70;99.90
7738;DHT22;29398;45.328;5.558;2023-06-14T06:21:17;20.70;99.90
7738;DHT22;29398;45.328;5.558;2023-06-14T06:22:19;20.70;99.90
7738;DHT22;29398;45.328;5.558;2023-06-14T06:23:20;20.70;99.90
7738;DHT22;29398;45.328;5.558;2023-06-14T06:24:22;20.70;99.90
7738;DHT22;29398;45.328;5.558;2023-06-14T06:25:26;20.70;99.90
7738;DHT22;29398;45.328;5.558;2023-06-14T06:26:29;20.80;99.90
7738;DHT22;29398;45.328;5.558;2023-06-14T06:27:30;20.80;99.90
7738;DHT22;29398;45.328;5.558;2023-06-14T06:28:32;20.80;99.90
7738;DHT22;29398;45.328;5.558;2023-06-14T06:29:33;20.90;99.90
7738;DHT22;29398;45.328;5.558;2023-06-14T06:30:35;20.90;99.90
7738;DHT22;29398;45.328;5.558;2023-06-14T06:31:37;20.90;99.90
7738;DHT22;29398;45.328;5.558;2023-06-14T06:32:39;21.00;99.90
7738;DHT22;29398;45.328;5.558;2023-06-14T06:33:40;21.00;99.90
7738;DHT22;29398;45.328;5.558;2023-06-14T06:34:42;21.10;99.90
7738;DHT22;29398;45.328;5.558;2023-06-14T06:35:43;21.20;99.90
7738;DHT22;29398;45.328;5.558;2023-06-14T06:36:46;21.30;99.90
7738;DHT22;29398;45.328;5.558;2023-06-14T06:37:47;21.40;99.90
7738;DHT22;29398;45.328;5.558;2023-06-14T06:38:50;21.40;99.90
7738;DHT22;29398;45.328;5.558;2023-06-14T06:39:51;21.40;99.90
7738;DHT22;29398;45.328;5.558;2023-06-14T06:40:53;21.40;99.90
7738;DHT22;29398;45.328;5.558;2023-06-14T06:41:55;21.50;99.90
7738;DHT22;29398;45.328;5.558;2023-06-14T06:43:06;21.50;99.90
7738;DHT22;29398;45.328;5.558;2023-06-14T06:44:15;21.60;99.90